Time;durP1;ratioP1;P1;durP2;ratioP2;P2;SDS_P1;SDS_P2;PMS_P1;PMS_P2;Temp;Humidity;BMP_temperature;BMP_pressure;BME280_temperature;BME280_humidity;BME280_pressure;Samples;Min_cycle;Max_cycle;Signal;HPM_P1;HPM_P2
2022/08/07 00:02:06;;;;;;;;;;;;;;;25.42;55.13;100446.00;7400816;19;1845;-56
2022/08/07 00:04:34;;;;;;;;;;;;;;;25.42;55.16;100450.59;7403450;19;1593;-56
2022/08/07 00:07:03;;;;;;;;;;;;;;;25.44;55.03;100451.25;7402422;19;1748;-56
2022/08/07 00:09:32;;;;;;;;;;;;;;;25.50;54.78;100443.22;7403536;19;1554;-56
2022/08/07 00:12:00;;;;;;;;;;;;;;;25.49;55.14;100474.03;7403312;19;1511;-56
2022/08/07 00:14:29;;;;;;;;;;;;;;;25.44;55.18;100451.25;7403844;19;1605;-56
2022/08/07 00:16:58;;;;;;;;;;;;;;;25.45;55.10;100472.72;7402220;19;1531;-56
2022/08/07 00:19:30;;;;;;;;;;;;;;;25.43;55.16;100463.09;7402523;19;1534;-56
2022/08/07 00:21:58;;;;;;;;;;;;;;;25.45;55.27;100458.34;7401587;19;1467;-56
2022/08/07 00:24:27;;;;;;;;;;;;;;;25.34;55.34;100451.50;7401398;19;1886;-56
2022/08/07 00:26:55;;;;;;;;;;;;;;;25.39;55.25;100452.66;7402850;19;1589;-56
2022/08/07 00:29:25;;;;;;;;;;;;;;;25.37;55.39;100451.16;7403157;19;1588;-56
2022/08/07 00:31:55;;;;;;;;;;;;;;;25.47;55.09;100457.13;7400628;19;1313;-56
2022/08/07 00:34:24;;;;;;;;;;;;;;;25.32;55.52;100451.69;7401750;19;1967;-56
2022/08/07 00:36:56;;;;;;;;;;;;;;;25.32;55.46;100446.28;7403135;19;1319;-56
2022/08/07 00:39:24;;;;;;;;;;;;;;;25.29;55.50;100462.91;7405536;19;1297;-56
2022/08/07 00:41:54;;;;;;;;;;;;;;;25.41;55.39;100455.19;7410195;19;1667;-56
2022/08/07 00:44:22;;;;;;;;;;;;;;;25.42;55.45;100456.84;7408002;19;1845;-56
2022/08/07 00:46:51;;;;;;;;;;;;;;;25.30;55.51;100453.75;7407969;19;1238;-56
2022/08/07 00:49:19;;;;;;;;;;;;;;;25.40;55.55;100453.47;7408129;19;1379;-56
2022/08/07 00:51:47;;;;;;;;;;;;;;;25.39;55.59;100468.88;7409177;19;1336;-56
2022/08/07 00:54:19;;;;;;;;;;;;;;;25.40;55.66;100448.91;7409152;19;1366;-56
2022/08/07 00:56:47;;;;;;;;;;;;;;;25.39;55.48;100451.81;7409557;19;1518;-56
2022/08/07 00:59:16;;;;;;;;;;;;;;;25.30;55.59;100456.44;7408960;19;1783;-56
2022/08/07 01:01:47;;;;;;;;;;;;;;;25.25;55.76;100453.47;7405765;19;1541;-56
2022/08/07 01:04:17;;;;;;;;;;;;;;;25.27;55.73;100454.13;7406934;19;1851;-56
2022/08/07 01:06:46;;;;;;;;;;;;;;;25.37;55.42;100460.13;7409238;19;1642;-56
2022/08/07 01:09:14;;;;;;;;;;;;;;;25.41;55.32;100466.00;7409301;19;1546;-56
2022/08/07 01:11:45;;;;;;;;;;;;;;;25.22;55.63;100444.88;7408061;19;1519;-56
2022/08/07 01:14:13;;;;;;;;;;;;;;;25.30;55.59;100455.63;7407949;19;1475;-56
2022/08/07 01:16:42;;;;;;;;;;;;;;;25.25;55.68;100445.34;7407124;19;1771;-56
2022/08/07 01:19:10;;;;;;;;;;;;;;;25.30;55.15;100455.63;7408587;19;1307;-56
2022/08/07 01:21:42;;;;;;;;;;;;;;;25.32;55.46;100454.41;7408155;19;1930;-56
2022/08/07 01:24:10;;;;;;;;;;;;;;;25.19;55.29;100468.56;7407151;19;1846;-56
2022/08/07 01:26:39;;;;;;;;;;;;;;;25.25;55.56;100477.84;7408764;19;1383;-56
2022/08/07 01:29:08;;;;;;;;;;;;;;;25.25;55.34;100483.25;7408204;19;1677;-56
2022/08/07 01:31:36;;;;;;;;;;;;;;;25.25;55.17;100471.56;7406866;19;1526;-56
2022/08/07 01:34:05;;;;;;;;;;;;;;;25.28;55.33;100485.56;7407300;19;1265;-56
2022/08/07 01:36:33;;;;;;;;;;;;;;;25.30;55.06;100475.41;7408981;19;1527;-56
2022/08/07 01:39:05;;;;;;;;;;;;;;;25.26;54.97;100471.38;7407769;19;1663;-56
2022/08/07 01:41:33;;;;;;;;;;;;;;;25.22;55.46;100480.91;7408040;19;1670;-56
2022/08/07 01:44:02;;;;;;;;;;;;;;;25.09;55.42;100473.38;7405103;19;1859;-56
2022/08/07 01:46:30;;;;;;;;;;;;;;;25.10;55.25;100475.03;7408817;19;1523;-56
2022/08/07 01:48:59;;;;;;;;;;;;;;;25.15;55.29;100477.22;7407410;19;1643;-56
2022/08/07 01:51:28;;;;;;;;;;;;;;;25.21;55.43;100471.06;7406874;19;1533;-56
2022/08/07 01:54:00;;;;;;;;;;;;;;;25.12;55.46;100472.16;7407754;19;1747;-56
2022/08/07 01:56:33;;;;;;;;;;;;;;;25.22;55.60;100480.06;7407548;19;1767;-56
2022/08/07 01:59:05;;;;;;;;;;;;;;;25.18;55.58;100472.25;7407366;19;1760;-56
2022/08/07 02:01:34;;;;;;;;;;;;;;;25.11;55.65;100473.19;7397562;19;1602;-56
2022/08/07 02:04:05;;;;;;;;;;;;;;;25.11;55.34;100467.75;7406099;19;1858;-56
2022/08/07 02:06:34;;;;;;;;;;;;;;;25.18;55.47;100476.84;7406576;19;1756;-56
2022/08/07 02:09:05;;;;;;;;;;;;;;;25.15;55.40;100486.19;7407053;19;1460;-56
2022/08/07 02:11:38;;;;;;;;;;;;;;;25.18;55.41;100495.78;7407110;19;1535;-56
2022/08/07 02:14:07;;;;;;;;;;;;;;;25.07;55.66;100479.97;7406235;19;1688;-56
2022/08/07 02:16:37;;;;;;;;;;;;;;;25.02;55.49;100484.06;7405090;19;1383;-56
2022/08/07 02:19:07;;;;;;;;;;;;;;;24.97;55.53;100480.25;7405430;19;1535;-56
2022/08/07 02:21:36;;;;;;;;;;;;;;;24.96;55.42;100490.22;7405419;19;1578;-56
2022/08/07 02:24:06;;;;;;;;;;;;;;;25.04;55.17;100485.78;7405639;19;1862;-56
2022/08/07 02:26:38;;;;;;;;;;;;;;;25.11;55.34;100484.00;7405757;19;1338;-56
2022/08/07 02:29:09;;;;;;;;;;;;;;;25.16;55.07;100481.59;7405770;19;1668;-56
2022/08/07 02:31:37;;;;;;;;;;;;;;;25.04;55.09;100486.59;7405675;19;1323;-56
2022/08/07 02:34:07;;;;;;;;;;;;;;;25.06;55.08;100492.69;7406668;19;1546;-56
2022/08/07 02:36:35;;;;;;;;;;;;;;;25.11;55.24;100487.56;7405594;19;1637;-56
2022/08/07 02:39:05;;;;;;;;;;;;;;;24.99;55.23;100492.56;7406061;19;1538;-56
2022/08/07 02:41:34;;;;;;;;;;;;;;;24.89;55.59;100501.94;7405289;19;1723;-56
2022/08/07 02:44:06;;;;;;;;;;;;;;;24.97;55.31;100505.44;7403455;19;1850;-56
2022/08/07 02:46:35;;;;;;;;;;;;;;;24.92;55.58;100507.84;7405380;19;1384;-56
2022/08/07 02:49:04;;;;;;;;;;;;;;;24.91;55.28;100498.06;7406018;19;1376;-56
2022/08/07 02:51:34;;;;;;;;;;;;;;;24.87;55.50;100496.72;7405707;19;1328;-56
2022/08/07 02:54:04;;;;;;;;;;;;;;;24.95;55.48;100507.47;7405835;19;1613;-56
2022/08/07 02:56:34;;;;;;;;;;;;;;;24.94;55.20;100489.56;7405844;19;1762;-56
2022/08/07 02:59:07;;;;;;;;;;;;;;;24.92;55.31;100496.19;7405051;19;1701;-56
2022/08/07 03:01:36;;;;;;;;;;;;;;;24.85;55.05;100493.38;7400241;19;1767;-56
2022/08/07 03:04:06;;;;;;;;;;;;;;;24.80;55.66;100487.66;7401974;19;1860;-56
2022/08/07 03:06:35;;;;;;;;;;;;;;;24.89;55.10;100496.53;7402603;19;1536;-56
2022/08/07 03:09:04;;;;;;;;;;;;;;;24.91;55.53;100502.59;7404136;19;1790;-56
2022/08/07 03:11:34;;;;;;;;;;;;;;;24.99;55.28;100499.84;7402325;19;1653;-56
2022/08/07 03:14:06;;;;;;;;;;;;;;;24.91;55.20;100503.47;7402337;19;1439;-56
2022/08/07 03:16:35;;;;;;;;;;;;;;;24.90;55.22;100507.19;7404563;19;1297;-56
2022/08/07 03:19:03;;;;;;;;;;;;;;;24.90;55.53;100512.59;7404673;19;1322;-56
2022/08/07 03:21:31;;;;;;;;;;;;;;;24.93;55.62;100528.47;7405058;19;1435;-56
2022/08/07 03:24:00;;;;;;;;;;;;;;;24.93;55.37;100538.41;7404016;19;1861;-56
2022/08/07 03:26:30;;;;;;;;;;;;;;;24.90;55.55;100527.97;7401531;19;1777;-56
2022/08/07 03:29:00;;;;;;;;;;;;;;;24.97;55.89;100532.50;7403603;19;1440;-56
2022/08/07 03:31:32;;;;;;;;;;;;;;;24.98;55.77;100536.03;7402213;19;1313;-56
2022/08/07 03:34:02;;;;;;;;;;;;;;;24.99;55.94;100543.13;7403982;19;1438;-56
2022/08/07 03:36:31;;;;;;;;;;;;;;;24.94;55.91;100522.03;7404618;19;1332;-56
2022/08/07 03:39:01;;;;;;;;;;;;;;;25.02;55.63;100535.47;7403600;19;1361;-56
2022/08/07 03:41:30;;;;;;;;;;;;;;;25.08;55.50;100541.19;7402386;19;1404;-56
2022/08/07 03:43:59;;;;;;;;;;;;;;;25.06;55.36;100538.66;7403112;19;1861;-56
2022/08/07 03:46:28;;;;;;;;;;;;;;;25.05;55.44;100541.53;7403847;19;1289;-56
2022/08/07 03:48:59;;;;;;;;;;;;;;;24.99;55.40;100525.03;7402960;19;1407;-56
2022/08/07 03:51:28;;;;;;;;;;;;;;;24.85;55.91;100547.47;7402797;19;1393;-56
2022/08/07 03:53:56;;;;;;;;;;;;;;;24.96;55.14;100541.63;7402697;19;1748;-56
2022/08/07 03:56:25;;;;;;;;;;;;;;;25.04;55.42;100550.69;7402886;19;1721;-56
2022/08/07 03:58:54;;;;;;;;;;;;;;;24.99;55.18;100543.97;7402227;19;1261;-56
2022/08/07 04:01:22;;;;;;;;;;;;;;;24.98;55.66;100536.88;7402190;19;1490;-56
2022/08/07 04:03:51;;;;;;;;;;;;;;;24.95;55.17;100537.25;7404467;19;1861;-56
2022/08/07 04:06:22;;;;;;;;;;;;;;;24.98;55.24;100552.25;7402200;19;1496;-56
2022/08/07 04:08:51;;;;;;;;;;;;;;;25.04;55.46;100545.28;7402967;19;1645;-55
2022/08/07 04:11:19;;;;;;;;;;;;;;;25.07;55.55;100537.66;7402861;19;1346;-56
2022/08/07 04:13:48;;;;;;;;;;;;;;;25.18;55.52;100553.44;7408374;19;1593;-56
2022/08/07 04:16:16;;;;;;;;;;;;;;;25.16;55.47;100546.53;7410789;19;1538;-56
2022/08/07 04:18:44;;;;;;;;;;;;;;;25.15;55.21;100547.56;7410729;19;1559;-56
2022/08/07 04:21:13;;;;;;;;;;;;;;;25.12;55.25;100556.88;7410310;19;1758;-56
2022/08/07 04:23:44;;;;;;;;;;;;;;;25.15;55.31;100566.53;7408972;19;1861;-55
2022/08/07 04:26:13;;;;;;;;;;;;;;;25.23;55.26;100555.66;7409452;19;1684;-56
2022/08/07 04:28:42;;;;;;;;;;;;;;;25.27;55.34;100550.69;7409252;19;1309;-56
2022/08/07 04:31:10;;;;;;;;;;;;;;;25.30;55.11;100567.41;7410323;19;1600;-56
2022/08/07 04:33:39;;;;;;;;;;;;;;;25.30;55.23;100556.59;7410504;19;1184;-56
2022/08/07 04:36:08;;;;;;;;;;;;;;;25.34;55.35;100568.75;7409146;19;1550;-56
2022/08/07 04:38:37;;;;;;;;;;;;;;;25.31;55.13;100565.59;7409229;19;1492;-56
2022/08/07 04:41:08;;;;;;;;;;;;;;;25.35;55.33;100564.19;7409125;19;1604;-56
2022/08/07 04:43:38;;;;;;;;;;;;;;;25.36;55.17;100566.69;7409228;19;1846;-56
2022/08/07 04:46:10;;;;;;;;;;;;;;;25.38;55.52;100561.94;7410118;19;1535;-56
2022/08/07 04:48:43;;;;;;;;;;;;;;;25.38;55.63;100559.22;7410180;19;1367;-56
2022/08/07 04:51:16;;;;;;;;;;;;;;;25.40;55.41;100572.59;7409086;19;1771;-56
2022/08/07 04:53:48;;;;;;;;;;;;;;;25.35;55.79;100565.03;7409561;19;1780;-56
2022/08/07 04:56:21;;;;;;;;;;;;;;;25.34;55.74;100567.91;7408794;19;1696;-56
2022/08/07 04:58:54;;;;;;;;;;;;;;;25.32;55.66;100570.78;7409094;19;1749;-56
2022/08/07 05:01:25;;;;;;;;;;;;;;;25.29;55.92;100587.41;7406873;19;1418;-56
2022/08/07 05:03:56;;;;;;;;;;;;;;;25.43;55.89;100566.81;7407646;19;1863;-56
2022/08/07 05:06:27;;;;;;;;;;;;;;;25.49;55.60;100570.66;7409406;19;1711;-56
2022/08/07 05:08:59;;;;;;;;;;;;;;;25.48;55.59;100564.38;7407271;19;1480;-56
2022/08/07 05:11:32;;;;;;;;;;;;;;;25.40;55.90;100570.72;7408678;19;1422;-56
2022/08/07 05:14:02;;;;;;;;;;;;;;;25.42;55.84;100559.72;7408900;19;1321;-56
2022/08/07 05:16:32;;;;;;;;;;;;;;;25.43;56.01;100568.66;7408390;19;1143;-56
2022/08/07 05:19:04;;;;;;;;;;;;;;;25.46;55.98;100562.91;7406472;19;1668;-56
2022/08/07 05:21:33;;;;;;;;;;;;;;;25.55;55.89;100581.59;7408061;19;1422;-56
2022/08/07 05:24:02;;;;;;;;;;;;;;;25.59;55.72;100573.94;7406571;19;1851;-56
2022/08/07 05:26:35;;;;;;;;;;;;;;;25.57;56.00;100578.72;7406536;19;1483;-55
2022/08/07 05:29:04;;;;;;;;;;;;;;;25.66;55.92;100577.59;7407400;19;1375;-56
2022/08/07 05:31:37;;;;;;;;;;;;;;;25.66;55.90;100582.16;7407459;19;1363;-56
2022/08/07 05:34:07;;;;;;;;;;;;;;;25.73;55.83;100589.38;7406739;19;1163;-56
2022/08/07 05:36:36;;;;;;;;;;;;;;;25.72;55.68;100593.09;7403686;19;1417;-61
2022/08/07 05:39:05;;;;;;;;;;;;;;;25.75;55.81;100581.91;7407646;19;1305;-62
2022/08/07 05:41:36;;;;;;;;;;;;;;;25.78;55.62;100592.38;7407093;19;1721;-65
2022/08/07 05:44:05;;;;;;;;;;;;;;;25.85;55.87;100597.91;7408893;19;1861;-66
2022/08/07 05:46:34;;;;;;;;;;;;;;;25.92;56.01;100592.59;7407581;19;1351;-64
2022/08/07 05:49:02;;;;;;;;;;;;;;;25.93;55.92;100594.28;7407180;19;1360;-66
2022/08/07 05:51:31;;;;;;;;;;;;;;;26.00;55.37;100595.22;7408658;19;1414;-64
2022/08/07 05:53:59;;;;;;;;;;;;;;;26.05;55.42;100613.66;7408712;19;1087;-58
2022/08/07 05:56:28;;;;;;;;;;;;;;;26.01;55.84;100598.78;7404900;19;1680;-56
2022/08/07 05:59:00;;;;;;;;;;;;;;;26.02;55.75;100606.72;7404654;19;1641;-56
2022/08/07 06:01:29;;;;;;;;;;;;;;;26.05;55.52;100606.34;7404869;19;1602;-55
2022/08/07 06:03:58;;;;;;;;;;;;;;;26.09;55.33;100609.53;7403900;19;1499;-61
2022/08/07 06:06:27;;;;;;;;;;;;;;;26.13;55.11;100608.97;7405944;19;1341;-60
2022/08/07 06:08:55;;;;;;;;;;;;;;;26.17;55.46;100607.56;7405279;19;1740;-61
2022/08/07 06:11:24;;;;;;;;;;;;;;;26.15;55.14;100593.34;7405148;19;1343;-60
2022/08/07 06:13:52;;;;;;;;;;;;;;;26.13;55.49;100595.41;7406472;19;1336;-61
2022/08/07 06:16:24;;;;;;;;;;;;;;;26.17;55.44;100604.00;7406156;19;1545;-59
2022/08/07 06:18:54;;;;;;;;;;;;;;;26.23;55.46;100605.13;7404408;19;1352;-60
2022/08/07 06:21:23;;;;;;;;;;;;;;;26.29;55.84;100605.22;7405217;19;1198;-64
2022/08/07 06:23:52;;;;;;;;;;;;;;;26.30;55.74;100592.50;7405324;19;1355;-62
2022/08/07 06:26:21;;;;;;;;;;;;;;;26.25;55.87;100606.63;7404173;19;1857;-63
2022/08/07 06:28:50;;;;;;;;;;;;;;;26.20;55.70;100595.50;7406112;19;1491;-60
2022/08/07 06:31:19;;;;;;;;;;;;;;;26.24;56.78;100617.66;7404111;19;1316;-61
2022/08/07 06:33:50;;;;;;;;;;;;;;;26.16;56.57;100600.47;7402335;19;1466;-64
2022/08/07 06:36:19;;;;;;;;;;;;;;;26.15;57.25;100604.19;7406283;19;1905;-61
2022/08/07 06:38:47;;;;;;;;;;;;;;;26.13;57.57;100603.53;7405458;19;1468;-62
2022/08/07 06:41:19;;;;;;;;;;;;;;;26.11;57.19;100586.63;7404663;19;1411;-62
2022/08/07 06:43:48;;;;;;;;;;;;;;;26.14;57.18;100591.69;7402501;19;1554;-59
2022/08/07 06:46:17;;;;;;;;;;;;;;;25.96;57.14;100577.66;7402246;19;1841;-59
2022/08/07 06:48:46;;;;;;;;;;;;;;;26.19;57.29;100604.66;7399020;19;1531;-63
2022/08/07 06:51:21;;;;;;;;;;;;;;;26.11;57.58;100607.47;7404636;19;1511;-64
2022/08/07 06:53:51;;;;;;;;;;;;;;;26.13;57.66;100616.25;7400673;19;1253;-63
2022/08/07 06:56:38;;;;;;;;;;;;;;;26.18;57.97;100601.13;7403378;19;1163;-65
2022/08/07 06:59:08;;;;;;;;;;;;;;;26.25;57.53;100608.50;7404197;19;1185;-66
2022/08/07 07:01:36;;;;;;;;;;;;;;;26.25;57.82;100608.50;7401185;19;1642;-60
2022/08/07 07:04:05;;;;;;;;;;;;;;;26.27;57.81;100620.00;7404055;19;1292;-56
2022/08/07 07:06:37;;;;;;;;;;;;;;;26.29;58.18;100620.66;7400570;19;1863;-61
2022/08/07 07:09:18;;;;;;;;;;;;;;;26.25;57.94;100616.63;7404358;19;1367;-57
2022/08/07 07:12:03;;;;;;;;;;;;;;;26.26;58.27;100615.59;7404094;19;1269;-58
2022/08/07 07:14:34;;;;;;;;;;;;;;;26.26;58.68;100611.03;7402461;19;1627;-59
2022/08/07 07:17:08;;;;;;;;;;;;;;;26.25;58.97;100598.50;7400948;19;1442;-57
2022/08/07 07:19:40;;;;;;;;;;;;;;;26.26;59.36;100616.47;7399909;19;1348;-58
2022/08/07 07:22:12;;;;;;;;;;;;;;;26.23;59.59;100618.69;7403257;19;1335;-60
2022/08/07 07:24:41;;;;;;;;;;;;;;;26.16;57.18;100622.16;7404240;19;1870;-60
2022/08/07 07:27:10;;;;;;;;;;;;;;;26.12;56.97;100612.72;7403687;19;1285;-60
2022/08/07 07:29:41;;;;;;;;;;;;;;;26.15;57.00;100625.03;7402603;19;1433;-59
2022/08/07 07:32:13;;;;;;;;;;;;;;;26.19;57.94;100616.34;7403276;19;1376;-62
2022/08/07 07:34:43;;;;;;;;;;;;;;;26.17;59.26;100618.41;7402916;19;1356;-73
2022/08/07 07:37:16;;;;;;;;;;;;;;;26.19;58.60;100619.06;7402324;19;1239;-73
2022/08/07 07:39:46;;;;;;;;;;;;;;;26.22;58.41;100604.28;7403731;19;1357;-53
2022/08/07 07:42:15;;;;;;;;;;;;;;;26.26;58.10;100618.31;7401750;19;1293;-53
2022/08/07 07:44:47;;;;;;;;;;;;;;;26.32;58.12;100641.94;7402828;19;1848;-62
2022/08/07 07:47:17;;;;;;;;;;;;;;;26.31;58.93;100630.28;7402229;19;1344;-65
2022/08/07 07:49:47;;;;;;;;;;;;;;;26.27;59.03;100633.56;7411676;19;1226;-66
2022/08/07 07:52:18;;;;;;;;;;;;;;;26.28;58.67;100613.53;7411816;19;1221;-62
2022/08/07 07:54:48;;;;;;;;;;;;;;;26.25;59.11;100608.50;7413049;19;1013;-65
2022/08/07 07:57:16;;;;;;;;;;;;;;;26.27;59.09;100618.13;7409457;19;1313;-65
2022/08/07 07:59:45;;;;;;;;;;;;;;;26.25;59.66;100612.06;7410675;19;1254;-66
2022/08/07 08:02:16;;;;;;;;;;;;;;;26.23;59.19;100613.28;7408232;19;1549;-67
2022/08/07 08:04:46;;;;;;;;;;;;;;;26.26;59.98;100621.00;7412094;19;1857;-67
2022/08/07 08:07:15;;;;;;;;;;;;;;;26.23;60.41;100616.00;7411085;19;1744;-65
2022/08/07 08:09:49;;;;;;;;;;;;;;;26.22;61.03;100612.41;7411943;19;1562;-65
2022/08/07 08:12:18;;;;;;;;;;;;;;;26.24;61.27;100606.81;7410696;19;1554;-66
2022/08/07 08:14:46;;;;;;;;;;;;;;;26.26;61.38;100624.59;7408887;19;1355;-62
2022/08/07 08:17:16;;;;;;;;;;;;;;;26.23;60.89;100607.84;7409464;19;1321;-67
2022/08/07 08:19:45;;;;;;;;;;;;;;;26.23;61.58;100618.69;7409978;19;1510;-67
2022/08/07 08:27:41;;;;;;;;;;;;;;;26.19;61.23;100624.47;7409587;19;1706;-68
2022/08/07 08:30:10;;;;;;;;;;;;;;;26.21;61.42;100623.47;7408994;19;1510;-66
2022/08/07 08:32:41;;;;;;;;;;;;;;;26.19;61.27;100627.19;7410436;19;1305;-66
2022/08/07 08:35:13;;;;;;;;;;;;;;;26.17;61.32;100615.69;7411011;19;1550;-67
2022/08/07 08:37:44;;;;;;;;;;;;;;;26.16;61.07;100618.59;7409125;19;1531;-67
2022/08/07 08:40:17;;;;;;;;;;;;;;;25.71;62.46;100618.50;7410124;19;1486;-53
2022/08/07 08:42:49;;;;;;;;;;;;;;;25.06;61.33;100625.25;7408972;19;1722;-53
2022/08/07 08:45:21;;;;;;;;;;;;;;;24.37;60.03;100625.06;7410242;19;1867;-53
2022/08/07 08:47:54;;;;;;;;;;;;;;;23.95;59.00;100623.47;7408435;19;1609;-53
2022/08/07 08:50:23;;;;;;;;;;;;;;;23.77;57.68;100624.50;7409403;19;1519;-53
2022/08/07 08:52:55;;;;;;;;;;;;;;;23.84;56.23;100613.06;7407563;19;1620;-53
2022/08/07 08:55:29;;;;;;;;;;;;;;;23.78;55.17;100620.81;7408190;19;1269;-53
2022/08/07 08:58:03;;;;;;;;;;;;;;;23.69;55.78;100604.75;7407595;19;1305;-53
2022/08/07 09:00:36;;;;;;;;;;;;;;;23.78;56.67;100598.38;7405892;19;1335;-53
2022/08/07 09:03:10;;;;;;;;;;;;;;;24.02;58.38;100611.81;7406821;19;1582;-53
2022/08/07 09:05:42;;;;;;;;;;;;;;;24.20;59.18;100597.25;7408048;19;1855;-53
2022/08/07 09:08:19;;;;;;;;;;;;;;;24.38;60.00;100591.63;7409789;19;1416;-53
2022/08/07 09:10:54;;;;;;;;;;;;;;;24.24;60.80;100609.41;7408234;19;1333;-54
2022/08/07 09:13:29;;;;;;;;;;;;;;;24.10;60.61;100602.03;7409049;19;1269;-53
2022/08/07 09:16:04;;;;;;;;;;;;;;;24.15;60.54;100583.41;7409910;19;1904;-55
2022/08/07 09:18:52;;;;;;;;;;;;;;;24.06;60.85;100595.28;7407800;19;1691;-54
2022/08/07 09:21:35;;;;;;;;;;;;;;;23.97;61.88;100594.44;7409972;19;1115;-55
2022/08/07 09:24:07;;;;;;;;;;;;;;;24.37;60.25;100589.91;7408250;19;1376;-57
2022/08/07 09:26:46;;;;;;;;;;;;;;;24.34;60.31;100582.19;7405134;19;1842;-54
2022/08/07 09:29:19;;;;;;;;;;;;;;;23.89;61.08;100575.56;7407666;19;1664;-54
2022/08/07 09:31:57;;;;;;;;;;;;;;;23.74;61.15;100591.59;7407212;19;1451;-55
2022/08/07 09:34:27;;;;;;;;;;;;;;;23.62;60.32;100586.53;7407425;19;1288;-54
2022/08/07 09:37:01;;;;;;;;;;;;;;;23.58;59.36;100560.91;7407605;19;1387;-54
2022/08/07 09:39:37;;;;;;;;;;;;;;;23.42;58.20;100577.97;7408275;19;1403;-54
2022/08/07 09:42:13;;;;;;;;;;;;;;;23.30;57.09;100581.16;7407032;19;1415;-54
2022/08/07 09:44:47;;;;;;;;;;;;;;;23.13;56.57;100594.63;7407872;19;1301;-54
2022/08/07 09:47:19;;;;;;;;;;;;;;;23.31;55.80;100583.69;7404849;19;1830;-54
2022/08/07 09:49:54;;;;;;;;;;;;;;;23.19;55.73;100574.25;7405897;19;1606;-54
2022/08/07 09:52:28;;;;;;;;;;;;;;;23.25;55.93;100568.16;7405503;19;1247;-54
2022/08/07 09:54:59;;;;;;;;;;;;;;;23.29;56.33;100556.03;7406495;19;1424;-54
2022/08/07 09:57:40;;;;;;;;;;;;;;;23.40;56.65;100574.59;7407879;19;1616;-54
2022/08/07 10:00:13;;;;;;;;;;;;;;;23.36;57.46;100554.34;7407146;19;1309;-54
2022/08/07 10:02:53;;;;;;;;;;;;;;;23.40;57.33;100558.41;7404665;19;1693;-54
2022/08/07 10:05:42;;;;;;;;;;;;;;;23.37;57.61;100555.19;7407016;19;1853;-54
2022/08/07 10:08:18;;;;;;;;;;;;;;;23.40;57.56;100552.16;7404846;19;1403;-54
2022/08/07 10:10:50;;;;;;;;;;;;;;;23.43;57.57;100552.66;7406622;19;1531;-54
2022/08/07 10:13:37;;;;;;;;;;;;;;;23.45;57.84;100559.75;7407732;19;1503;-59
2022/08/07 10:16:17;;;;;;;;;;;;;;;23.37;57.83;100552.50;7407800;19;1308;-59
2022/08/07 10:19:04;;;;;;;;;;;;;;;23.38;58.30;100560.44;7406641;19;1309;-59
2022/08/07 10:21:42;;;;;;;;;;;;;;;23.37;59.22;100558.72;7405193;19;1425;-59
2022/08/07 10:24:24;;;;;;;;;;;;;;;23.52;59.33;100549.97;7403881;19;1579;-63
2022/08/07 10:26:56;;;;;;;;;;;;;;;23.48;59.43;100540.53;7404265;19;1845;-63
2022/08/07 10:29:43;;;;;;;;;;;;;;;23.50;59.60;100552.81;7406213;19;1380;-64
2022/08/07 10:32:26;;;;;;;;;;;;;;;23.88;58.50;100550.41;7405149;19;1547;-68
2022/08/07 10:34:59;;;;;;;;;;;;;;;24.11;57.87;100533.44;7406132;19;1222;-61
2022/08/07 10:37:37;;;;;;;;;;;;;;;24.15;58.40;100521.28;7405343;19;1328;-61
2022/08/07 10:40:10;;;;;;;;;;;;;;;24.16;58.22;100531.09;7405921;19;1135;-61
2022/08/07 10:42:41;;;;;;;;;;;;;;;24.18;58.47;100540.69;7404343;19;1375;-61
2022/08/07 10:45:29;;;;;;;;;;;;;;;24.14;59.64;100539.34;7403854;19;1201;-64
2022/08/07 10:48:14;;;;;;;;;;;;;;;24.22;59.13;100523.09;7402343;19;1838;-62
2022/08/07 10:50:46;;;;;;;;;;;;;;;24.05;59.55;100539.56;7403564;19;1335;-61
2022/08/07 10:53:19;;;;;;;;;;;;;;;24.06;59.59;100538.56;7405274;19;1329;-61
2022/08/07 10:55:49;;;;;;;;;;;;;;;24.18;59.29;100554.19;7404920;19;1311;-64
2022/08/07 10:58:22;;;;;;;;;;;;;;;24.08;60.19;100540.06;7406018;19;1058;-61
2022/08/07 11:00:57;;;;;;;;;;;;;;;24.20;59.59;100533.25;7404723;19;1680;-62
2022/08/07 11:03:33;;;;;;;;;;;;;;;24.20;59.61;100516.19;7405108;19;1276;-68
2022/08/07 11:06:12;;;;;;;;;;;;;;;24.01;60.56;100523.72;7404017;19;1863;-61
2022/08/07 11:08:45;;;;;;;;;;;;;;;24.26;59.92;100530.88;7404575;19;1632;-67
2022/08/07 11:11:15;;;;;;;;;;;;;;;24.23;59.94;100526.63;7402777;19;1297;-59
2022/08/07 11:13:47;;;;;;;;;;;;;;;24.12;60.11;100527.03;7401060;19;1376;-60
2022/08/07 11:16:22;;;;;;;;;;;;;;;24.26;59.64;100522.75;7398757;19;1340;-61
2022/08/07 11:18:55;;;;;;;;;;;;;;;24.22;59.69;100519.56;7403140;19;1375;-60
2022/08/07 11:21:29;;;;;;;;;;;;;;;24.00;60.14;100516.63;7404666;19;1115;-60
2022/08/07 11:24:00;;;;;;;;;;;;;;;24.19;59.97;100523.47;7402290;19;1589;-65
2022/08/07 11:26:33;;;;;;;;;;;;;;;24.17;60.00;100530.03;7402498;19;1857;-56
2022/08/07 11:29:04;;;;;;;;;;;;;;;23.97;60.74;100521.50;7403374;19;1434;-56
2022/08/07 11:31:39;;;;;;;;;;;;;;;23.98;60.86;100512.41;7402214;19;1341;-56
2022/08/07 11:34:10;;;;;;;;;;;;;;;23.90;60.54;100501.66;7402307;19;1439;-57
2022/08/07 11:36:42;;;;;;;;;;;;;;;23.87;60.73;100521.72;7400912;19;1288;-61
2022/08/07 11:39:15;;;;;;;;;;;;;;;23.75;60.85;100507.72;7403593;19;1621;-57
2022/08/07 11:41:49;;;;;;;;;;;;;;;24.16;60.52;100515.69;7403541;19;1348;-71
2022/08/07 11:44:22;;;;;;;;;;;;;;;24.20;60.55;100492.72;7405951;19;1471;-75
2022/08/07 11:47:00;;;;;;;;;;;;;;;24.09;61.47;100495.81;7404901;19;1822;-70
2022/08/07 11:49:45;;;;;;;;;;;;;;;24.32;61.00;100486.94;7404872;19;1342;-75
2022/08/07 11:52:22;;;;;;;;;;;;;;;24.94;59.38;100503.09;7405904;19;1257;-68
2022/08/07 11:55:00;;;;;;;;;;;;;;;25.16;59.10;100500.53;7404592;19;1399;-66
2022/08/07 11:57:33;;;;;;;;;;;;;;;25.32;58.70;100505.81;7403997;19;1352;-72
2022/08/07 12:00:08;;;;;;;;;;;;;;;25.37;59.06;100483.66;7404589;19;1385;-74
2022/08/07 12:03:02;;;;;;;;;;;;;;;25.44;58.91;100481.03;7401146;19;1390;-65
2022/08/07 12:05:33;;;;;;;;;;;;;;;25.51;59.06;100479.28;7403176;19;1176;-65
2022/08/07 12:08:03;;;;;;;;;;;;;;;25.54;59.37;100493.25;7400241;19;1863;-67
2022/08/07 12:10:35;;;;;;;;;;;;;;;25.66;58.81;100484.69;7399695;19;1306;-59
2022/08/07 12:13:05;;;;;;;;;;;;;;;25.61;59.29;100477.13;7399922;19;1301;-57
2022/08/07 12:15:36;;;;;;;;;;;;;;;25.67;59.32;100489.91;7400533;19;1593;-57
2022/08/07 12:18:14;;;;;;;;;;;;;;;25.73;59.40;100493.75;7399892;19;1349;-56
2022/08/07 12:20:47;;;;;;;;;;;;;;;25.78;59.46;100491.31;7400130;19;1371;-55
2022/08/07 12:23:25;;;;;;;;;;;;;;;25.76;59.43;100480.66;7400691;19;1674;-66
2022/08/07 12:25:56;;;;;;;;;;;;;;;25.77;60.02;100487.75;7400362;19;1485;-65
2022/08/07 12:28:32;;;;;;;;;;;;;;;25.81;60.20;100471.97;7400211;19;1951;-57
2022/08/07 12:31:03;;;;;;;;;;;;;;;25.75;60.56;100478.97;7402313;19;1396;-56
2022/08/07 12:33:35;;;;;;;;;;;;;;;25.82;60.46;100478.22;7399150;19;1565;-55
2022/08/07 12:36:06;;;;;;;;;;;;;;;25.82;60.99;100478.22;7408903;19;1378;-55
2022/08/07 12:38:35;;;;;;;;;;;;;;;25.83;60.68;100474.50;7409079;19;1457;-57
2022/08/07 12:41:04;;;;;;;;;;;;;;;25.84;60.42;100466.16;7409656;19;1628;-56
2022/08/07 12:43:34;;;;;;;;;;;;;;;25.84;60.70;100460.75;7408622;19;1608;-56
2022/08/07 12:46:08;;;;;;;;;;;;;;;25.85;62.06;100477.88;7409483;19;1579;-54
2022/08/07 12:48:43;;;;;;;;;;;;;;;25.85;61.97;100476.00;7403845;19;1842;-55
2022/08/07 12:51:14;;;;;;;;;;;;;;;25.94;61.75;100471.34;7404103;19;1419;-55
2022/08/07 12:53:45;;;;;;;;;;;;;;;25.93;62.82;100456.13;7410322;19;1560;-59
2022/08/07 12:56:27;;;;;;;;;;;;;;;25.94;62.98;100465.91;7408692;19;1736;-61
2022/08/07 12:58:56;;;;;;;;;;;;;;;25.95;62.45;100462.19;7407242;19;1645;-58
2022/08/07 13:01:33;;;;;;;;;;;;;;;26.03;63.14;100462.09;7408217;19;1439;-59
2022/08/07 13:04:23;;;;;;;;;;;;;;;26.04;63.43;100444.78;7408848;19;1602;-56
2022/08/07 13:07:06;;;;;;;;;;;;;;;26.10;62.42;100435.06;7404958;19;1874;-55
2022/08/07 13:09:44;;;;;;;;;;;;;;;26.11;62.28;100443.00;7406720;19;1482;-57
2022/08/07 13:12:16;;;;;;;;;;;;;;;26.13;61.95;100443.66;7404146;19;1338;-62
2022/08/07 13:14:48;;;;;;;;;;;;;;;26.17;62.62;100455.78;7409570;19;1541;-64
2022/08/07 13:17:19;;;;;;;;;;;;;;;26.24;62.24;100460.44;7407653;19;1550;-55